createdAt,value
2022-08-26T00:01:54.095Z,71.88
2022-08-26T00:04:23.420Z,71.94
2022-08-26T00:06:50.207Z,71.73
2022-08-26T00:09:16.961Z,71.24
2022-08-26T00:11:47.261Z,71.25
2022-08-26T00:14:15.770Z,70.97
2022-08-26T00:16:47.545Z,71.15
2022-08-26T00:19:18.198Z,70.95
2022-08-26T00:21:46.463Z,70.91
2022-08-26T00:24:19.953Z,70.39
2022-08-26T00:26:47.249Z,70.36
2022-08-26T00:29:16.247Z,70.62
2022-08-26T00:31:45.287Z,70.52
2022-08-26T00:34:12.850Z,70.24
2022-08-26T00:36:40.953Z,70.25
2022-08-26T00:39:08.270Z,70.11
2022-08-26T00:41:37.792Z,69.85
2022-08-26T00:44:05.523Z,70.30
2022-08-26T00:46:37.099Z,69.89
2022-08-26T00:49:18.042Z,69.87
2022-08-26T00:51:50.834Z,69.96
2022-08-26T00:54:19.872Z,69.97
2022-08-26T00:57:02.507Z,69.69
2022-08-26T00:59:32.882Z,69.67
2022-08-26T01:02:00.435Z,69.56
2022-08-26T01:04:31.912Z,69.60
2022-08-26T01:06:59.185Z,69.72
2022-08-26T01:09:27.008Z,69.93
2022-08-26T01:11:57.513Z,69.52
2022-08-26T01:14:29.647Z,70.22
2022-08-26T01:16:56.373Z,69.96
2022-08-26T01:19:31.715Z,70.13
2022-08-26T01:22:03.112Z,70.03
2022-08-26T01:24:30.887Z,70.01
2022-08-26T01:27:01.607Z,69.87
2022-08-26T01:29:29.971Z,70.07
2022-08-26T01:31:57.624Z,69.93
2022-08-26T01:34:34.992Z,70.12
2022-08-26T01:37:07.437Z,70.33
2022-08-26T01:39:36.465Z,70.26
2022-08-26T01:42:10.306Z,70.08
2022-08-26T01:44:51.524Z,70.09
2022-08-26T01:47:24.360Z,70.51
2022-08-26T01:49:54.801Z,70.78
2022-08-26T01:52:28.176Z,70.73
2022-08-26T01:54:56.287Z,70.74
2022-08-26T01:57:25.329Z,70.57
2022-08-26T01:59:55.377Z,70.47
2022-08-26T02:02:23.545Z,70.48
2022-08-26T02:04:58.276Z,70.30
2022-08-26T02:07:26.844Z,70.62
2022-08-26T02:09:53.954Z,70.28
2022-08-26T02:12:20.725Z,70.63
2022-08-26T02:14:54.129Z,71.15
2022-08-26T02:17:26.246Z,70.79
2022-08-26T02:19:53.441Z,71.38
2022-08-26T02:22:24.637Z,71.44
2022-08-26T02:25:01.116Z,71.51
2022-08-26T02:27:32.792Z,71.60
2022-08-26T02:30:28.201Z,71.74
2022-08-26T02:32:57.748Z,71.90
2022-08-26T02:35:25.892Z,71.93
2022-08-26T02:37:53.096Z,71.88
2022-08-26T02:40:24.827Z,71.91
2022-08-26T02:42:52.908Z,71.72
2022-08-26T02:45:23.821Z,72.12
2022-08-26T02:47:52.386Z,72.11
2022-08-26T02:50:19.522Z,72.47
2022-08-26T02:52:46.313Z,73.01
2022-08-26T02:55:13.100Z,73.31
2022-08-26T02:57:39.703Z,73.38
2022-08-26T03:00:09.901Z,73.78
2022-08-26T03:02:40.125Z,73.30
2022-08-26T03:05:07.501Z,73.25
2022-08-26T03:07:34.512Z,73.60
2022-08-26T03:10:01.164Z,73.40
2022-08-26T03:12:34.304Z,73.32
2022-08-26T03:15:01.582Z,73.61
2022-08-26T03:17:28.229Z,73.43
2022-08-26T03:19:57.260Z,73.63
2022-08-26T03:22:25.193Z,73.65
2022-08-26T03:24:52.297Z,73.96
2022-08-26T03:27:19.101Z,73.96
2022-08-26T03:30:04.239Z,74.07
2022-08-26T03:32:31.322Z,74.02
2022-08-26T03:34:58.525Z,74.34
2022-08-26T03:37:25.153Z,74.19
2022-08-26T03:39:52.589Z,73.91
2022-08-26T03:42:21.538Z,74.12
2022-08-26T03:44:48.942Z,74.03
2022-08-26T03:47:15.824Z,74.28
2022-08-26T03:49:42.470Z,74.17
2022-08-26T03:52:09.441Z,74.55
2022-08-26T03:54:36.687Z,74.19
2022-08-26T03:57:06.297Z,74.05
2022-08-26T03:59:32.934Z,74.11
2022-08-26T04:01:59.822Z,74.18
2022-08-26T04:04:26.442Z,74.17
2022-08-26T04:07:00.965Z,74.09
2022-08-26T04:09:28.285Z,74.20
2022-08-26T04:11:58.666Z,74.32
2022-08-26T04:14:27.682Z,74.18
2022-08-26T04:16:55.399Z,74.22
2022-08-26T04:19:23.603Z,74.29
2022-08-26T04:21:53.402Z,74.26
2022-08-26T04:24:24.122Z,74.02
2022-08-26T04:26:51.088Z,74.29
2022-08-26T04:29:21.682Z,74.19
2022-08-26T04:31:48.583Z,74.26
2022-08-26T04:34:16.028Z,74.25
2022-08-26T04:36:43.809Z,73.84
2022-08-26T04:39:12.708Z,73.80
2022-08-26T04:41:39.999Z,73.88
2022-08-26T04:44:07.733Z,73.46
2022-08-26T04:46:35.186Z,73.55
2022-08-26T04:49:08.494Z,74.08
2022-08-26T04:51:36.211Z,73.96
2022-08-26T04:54:06.924Z,74.13
2022-08-26T04:56:37.482Z,73.71
2022-08-26T04:59:07.984Z,73.61
2022-08-26T05:01:46.228Z,73.52
2022-08-26T05:04:13.650Z,73.73
2022-08-26T05:06:43.598Z,73.38
2022-08-26T05:09:10.792Z,73.40
2022-08-26T05:11:38.401Z,73.11
2022-08-26T05:14:06.056Z,73.09
2022-08-26T05:16:32.716Z,73.52
2022-08-26T05:18:59.502Z,73.31
2022-08-26T05:21:29.170Z,73.36
2022-08-26T05:23:57.075Z,73.19
2022-08-26T05:26:29.554Z,73.97
2022-08-26T05:28:56.874Z,73.53
2022-08-26T05:31:28.531Z,72.92
2022-08-26T05:33:57.469Z,72.71
2022-08-26T05:36:28.169Z,72.79
2022-08-26T05:38:57.363Z,72.33
2022-08-26T05:41:34.588Z,72.37
2022-08-26T05:44:05.847Z,71.93
2022-08-26T05:46:33.866Z,72.02
2022-08-26T05:49:01.213Z,71.94
2022-08-26T05:51:27.866Z,72.35
2022-08-26T05:53:57.793Z,71.81
2022-08-26T05:56:26.117Z,71.68
2022-08-26T05:58:53.567Z,71.62
2022-08-26T06:01:23.665Z,71.13
2022-08-26T06:03:52.366Z,71.49
2022-08-26T06:06:27.460Z,71.04
2022-08-26T06:08:59.041Z,70.77
2022-08-26T06:11:27.848Z,70.89
2022-08-26T06:14:01.355Z,70.84
2022-08-26T06:16:31.375Z,70.71
2022-08-26T06:18:58.003Z,70.88
2022-08-26T06:21:29.131Z,70.78
2022-08-26T06:24:17.131Z,71.13
2022-08-26T06:26:50.355Z,70.92
2022-08-26T06:29:24.627Z,70.77
2022-08-26T06:31:52.876Z,71.06
2022-08-26T06:34:19.805Z,70.76
2022-08-26T06:36:47.284Z,70.62
2022-08-26T06:39:16.619Z,69.80
2022-08-26T06:41:45.018Z,70.09
2022-08-26T06:44:17.600Z,70.33
2022-08-26T06:46:45.909Z,70.18
2022-08-26T06:49:17.243Z,70.21
2022-08-26T06:51:44.242Z,69.70
2022-08-26T06:54:11.542Z,69.22
2022-08-26T06:56:42.675Z,69.31
2022-08-26T06:59:12.562Z,68.75
2022-08-26T07:01:45.675Z,69.08
2022-08-26T07:04:15.726Z,68.99
2022-08-26T07:06:48.931Z,68.32
2022-08-26T07:09:17.406Z,68.55
2022-08-26T07:11:45.008Z,68.80
2022-08-26T07:14:12.477Z,68.01
2022-08-26T07:16:41.216Z,67.70
2022-08-26T07:19:11.448Z,67.18
2022-08-26T07:21:41.541Z,67.59
2022-08-26T07:24:10.986Z,67.39
2022-08-26T07:26:39.281Z,67.76
2022-08-26T07:29:12.320Z,67.30
2022-08-26T07:31:39.570Z,66.88
2022-08-26T07:34:13.942Z,66.91
2022-08-26T07:36:41.354Z,66.66
2022-08-26T07:39:08.629Z,66.16
2022-08-26T07:41:36.511Z,66.32
2022-08-26T07:44:04.259Z,66.18
2022-08-26T07:46:31.192Z,65.89
2022-08-26T07:48:58.384Z,65.53
2022-08-26T07:51:25.795Z,65.16
2022-08-26T07:53:55.551Z,64.84
2022-08-26T07:56:24.030Z,63.67
2022-08-26T07:58:53.123Z,63.41
2022-08-26T08:01:21.599Z,63.24
2022-08-26T08:03:51.573Z,63.07
2022-08-26T08:06:19.769Z,63.31
2022-08-26T08:08:48.441Z,63.65
2022-08-26T08:11:21.607Z,63.87
2022-08-26T08:13:56.102Z,63.18
2022-08-26T08:16:32.233Z,63.39
2022-08-26T08:19:00.567Z,63.04
2022-08-26T08:21:27.897Z,62.75
2022-08-26T08:23:57.476Z,62.43
2022-08-26T08:26:26.213Z,61.87
2022-08-26T08:28:57.480Z,61.65
2022-08-26T08:34:16.971Z,60.93
2022-08-26T08:36:46.238Z,60.65
2022-08-26T08:39:13.589Z,60.43
2022-08-26T08:41:58.559Z,60.93
2022-08-26T08:47:06.088Z,59.74
2022-08-26T08:49:34.650Z,59.92
2022-08-26T08:52:10.818Z,59.54
2022-08-26T08:54:38.187Z,59.76
2022-08-26T08:57:14.974Z,59.55
2022-08-26T08:59:51.984Z,59.02
2022-08-26T09:02:46.617Z,58.86
2022-08-26T09:05:25.953Z,58.97
2022-08-26T09:07:59.375Z,59.33
2022-08-26T09:10:36.993Z,59.53
2022-08-26T09:13:16.967Z,59.70
2022-08-26T09:16:04.285Z,60.03
2022-08-26T09:18:49.779Z,59.18
2022-08-26T09:21:19.448Z,58.94
2022-08-26T09:23:49.535Z,58.62
2022-08-26T09:26:30.757Z,58.55
2022-08-26T09:29:02.140Z,58.40
2022-08-26T09:31:37.456Z,58.26
2022-08-26T09:34:18.306Z,57.97
2022-08-26T09:36:53.529Z,57.82
2022-08-26T09:39:23.871Z,58.14
2022-08-26T09:42:05.842Z,58.58
2022-08-26T09:44:33.563Z,58.32
2022-08-26T09:47:07.032Z,58.37
2022-08-26T09:49:36.399Z,58.11
2022-08-26T09:52:23.735Z,57.18
2022-08-26T09:55:03.485Z,57.14
2022-08-26T09:57:34.290Z,57.23
2022-08-26T10:00:03.060Z,57.38
2022-08-26T10:02:41.776Z,57.81
2022-08-26T10:05:26.330Z,57.30
2022-08-26T10:07:54.818Z,56.89
2022-08-26T10:10:39.496Z,56.76
2022-08-26T10:13:23.759Z,56.89
2022-08-26T10:15:56.367Z,57.21
2022-08-26T10:18:34.755Z,56.98
2022-08-26T10:21:10.949Z,56.86
2022-08-26T10:23:45.893Z,56.87
2022-08-26T10:26:33.644Z,56.72
2022-08-26T10:29:08.894Z,56.22
2022-08-26T10:31:40.985Z,55.46
2022-08-26T10:34:12.535Z,55.07
2022-08-26T10:37:13.678Z,54.76
2022-08-26T10:39:49.120Z,54.60
2022-08-26T10:42:26.035Z,54.77
2022-08-26T10:45:02.486Z,54.73
2022-08-26T10:47:37.792Z,55.06
2022-08-26T10:50:05.697Z,55.19
2022-08-26T10:52:46.297Z,55.20
2022-08-26T10:55:27.520Z,54.93
2022-08-26T10:58:28.039Z,54.46
2022-08-26T11:01:25.935Z,53.93
2022-08-26T11:04:10.234Z,53.35
2022-08-26T11:06:37.856Z,53.23
2022-08-26T11:09:08.562Z,53.38
2022-08-26T11:11:43.595Z,53.08
2022-08-26T11:14:16.290Z,53.23
2022-08-26T11:16:57.333Z,52.53
2022-08-26T11:19:59.044Z,52.28
2022-08-26T11:22:28.599Z,52.23
2022-08-26T11:24:55.357Z,51.93
2022-08-26T11:27:28.918Z,51.80
2022-08-26T11:30:05.289Z,52.09
2022-08-26T11:32:35.074Z,52.36
2022-08-26T11:35:06.291Z,51.77
2022-08-26T11:37:45.646Z,50.68
2022-08-26T11:46:09.211Z,49.05
2022-08-26T11:48:39.879Z,48.47
2022-08-26T11:51:32.902Z,48.59
2022-08-26T11:54:34.530Z,49.67
2022-08-26T11:57:11.818Z,49.54
2022-08-26T11:59:41.321Z,48.73
2022-08-26T12:02:17.979Z,48.20
2022-08-26T12:04:48.895Z,48.24
2022-08-26T12:07:23.746Z,48.75
2022-08-26T12:10:00.590Z,48.18
2022-08-26T12:12:35.214Z,48.13
2022-08-26T12:15:12.638Z,48.07
2022-08-26T12:17:40.704Z,47.64
2022-08-26T12:20:30.296Z,47.32
2022-08-26T12:23:00.239Z,47.54
2022-08-26T12:25:36.051Z,47.35
2022-08-26T12:28:07.154Z,47.20
2022-08-26T12:30:34.138Z,46.89
2022-08-26T12:33:23.040Z,46.55
2022-08-26T12:35:56.643Z,46.73
2022-08-26T12:38:26.212Z,46.15
2022-08-26T12:40:53.763Z,45.78
2022-08-26T12:43:41.945Z,46.32
2022-08-26T12:46:12.973Z,46.17
2022-08-26T12:48:44.040Z,46.66
2022-08-26T12:51:29.301Z,46.27
2022-08-26T12:54:00.108Z,45.65
2022-08-26T12:56:54.515Z,45.61
2022-08-26T12:59:27.138Z,45.49
2022-08-26T13:01:54.467Z,45.67
2022-08-26T13:04:43.050Z,45.18
2022-08-26T13:07:36.634Z,44.96
2022-08-26T13:10:03.582Z,44.92
2022-08-26T13:12:33.116Z,45.20
2022-08-26T13:15:01.605Z,44.76
2022-08-26T13:17:30.212Z,44.30
2022-08-26T13:20:03.328Z,44.31
2022-08-26T13:22:32.205Z,43.70
2022-08-26T13:25:01.851Z,43.91
2022-08-26T13:27:29.187Z,44.15
2022-08-26T13:29:57.824Z,43.88
2022-08-26T13:32:27.499Z,43.25
2022-08-26T13:34:56.472Z,43.07
2022-08-26T13:37:24.396Z,43.33
2022-08-26T13:40:01.889Z,43.06
2022-08-26T13:42:29.429Z,42.38
2022-08-26T13:44:58.254Z,42.65
2022-08-26T13:47:26.286Z,42.85
2022-08-26T13:49:55.403Z,42.53
2022-08-26T13:52:30.129Z,42.74
2022-08-26T13:55:01.678Z,43.20
2022-08-26T13:57:30.509Z,42.82
2022-08-26T14:00:00.805Z,42.81
2022-08-26T14:02:29.044Z,43.19
2022-08-26T14:04:57.938Z,43.24
2022-08-26T14:07:25.094Z,43.23
2022-08-26T14:09:51.970Z,42.81
2022-08-26T14:12:18.941Z,43.63
2022-08-26T14:14:47.686Z,42.77
2022-08-26T14:17:21.676Z,42.39
2022-08-26T14:19:50.081Z,42.72
2022-08-26T14:28:22.643Z,42.96
2022-08-26T14:30:59.333Z,42.90
2022-08-26T14:33:32.452Z,43.10
2022-08-26T14:36:19.548Z,42.91
2022-08-26T14:38:47.756Z,43.15
2022-08-26T14:41:19.720Z,42.58
2022-08-26T14:44:05.642Z,43.15
2022-08-26T14:46:43.558Z,46.60
2022-08-26T14:49:10.902Z,49.13
2022-08-26T14:51:38.583Z,52.08
2022-08-26T14:54:14.437Z,52.48
2022-08-26T14:56:58.726Z,54.56
2022-08-26T14:59:29.988Z,54.41
2022-08-26T15:01:59.026Z,54.84
2022-08-26T15:04:26.773Z,55.80
2022-08-26T15:06:55.574Z,56.68
2022-08-26T15:09:23.413Z,58.43
2022-08-26T15:11:50.783Z,58.91
2022-08-26T15:14:19.629Z,59.23
2022-08-26T15:16:52.593Z,62.44
2022-08-26T15:19:20.898Z,61.79
2022-08-26T15:21:48.072Z,63.05
2022-08-26T15:24:18.820Z,61.65
2022-08-26T15:26:46.822Z,60.87
2022-08-26T15:29:14.577Z,61.48
2022-08-26T15:31:43.765Z,61.77
2022-08-26T15:34:16.031Z,62.34
2022-08-26T15:36:46.803Z,63.45
2022-08-26T15:39:15.186Z,64.39
2022-08-26T15:41:42.155Z,65.89
2022-08-26T15:44:10.967Z,65.21
2022-08-26T15:46:38.710Z,64.08
2022-08-26T15:49:06.127Z,64.24
2022-08-26T15:51:35.935Z,65.41
2022-08-26T15:54:13.375Z,64.71
2022-08-26T15:56:43.692Z,63.98
2022-08-26T15:59:11.640Z,64.19
2022-08-26T16:01:39.306Z,64.01
2022-08-26T16:04:06.761Z,63.90
2022-08-26T16:06:36.287Z,65.34
2022-08-26T16:09:03.831Z,64.95
2022-08-26T16:11:31.274Z,65.70
2022-08-26T16:13:58.345Z,65.29
2022-08-26T16:16:25.210Z,65.31
2022-08-26T16:18:52.367Z,65.58
2022-08-26T16:21:22.487Z,66.58
2022-08-26T16:23:49.370Z,67.23
2022-08-26T16:26:19.754Z,66.49
2022-08-26T16:28:47.466Z,67.12
2022-08-26T16:31:16.660Z,67.23
2022-08-26T16:33:43.597Z,67.21
2022-08-26T16:36:13.883Z,66.72
2022-08-26T16:38:41.364Z,67.64
2022-08-26T16:41:08.922Z,68.13
2022-08-26T16:43:35.899Z,69.38
2022-08-26T16:46:07.553Z,69.67
2022-08-26T16:48:35.314Z,70.04
2022-08-26T16:51:02.342Z,69.30
2022-08-26T16:53:29.158Z,69.19
2022-08-26T16:55:55.870Z,68.50
2022-08-26T16:58:25.530Z,68.37
2022-08-26T17:00:52.502Z,67.69
2022-08-26T17:03:22.461Z,67.91
2022-08-26T17:05:49.232Z,67.82
2022-08-26T17:08:28.344Z,68.26
2022-08-26T17:10:56.572Z,69.07
2022-08-26T17:13:35.033Z,69.56
2022-08-26T17:16:05.138Z,69.64
2022-08-26T17:18:47.700Z,69.09
2022-08-26T17:21:14.926Z,69.16
2022-08-26T17:23:43.196Z,69.50
2022-08-26T17:26:12.073Z,69.34
2022-08-26T17:28:41.782Z,69.28
2022-08-26T17:31:13.278Z,69.59
2022-08-26T17:33:42.358Z,69.95
2022-08-26T17:36:12.597Z,69.70
2022-08-26T17:38:39.986Z,69.38
2022-08-26T17:41:11.196Z,70.51
2022-08-26T17:43:39.419Z,71.21
2022-08-26T17:46:08.414Z,70.85
2022-08-26T17:48:40.046Z,71.51
2022-08-26T17:51:15.425Z,72.04
2022-08-26T17:53:46.644Z,71.78
2022-08-26T17:56:15.665Z,71.89
2022-08-26T17:58:48.069Z,72.05
2022-08-26T18:01:20.511Z,72.39
2022-08-26T18:03:47.587Z,72.29
2022-08-26T18:06:15.864Z,73.04
2022-08-26T18:08:45.364Z,72.84
2022-08-26T18:11:15.929Z,73.49
2022-08-26T18:13:47.259Z,73.63
2022-08-26T18:16:16.250Z,74.19
2022-08-26T18:22:49.178Z,75.07
2022-08-26T18:25:17.436Z,74.65
2022-08-26T18:27:44.120Z,74.72
2022-08-26T18:42:23.557Z,76.06
2022-08-26T18:44:51.257Z,76.54
2022-08-26T18:47:18.046Z,76.62
2022-08-26T18:49:46.161Z,76.35
2022-08-26T18:52:13.001Z,76.09
2022-08-26T18:54:39.726Z,75.92
2022-08-26T18:57:06.585Z,76.33
2022-08-26T18:59:33.807Z,76.61
2022-08-26T19:02:00.792Z,76.86
2022-08-26T19:04:27.572Z,76.87
2022-08-26T19:06:54.235Z,77.24
2022-08-26T19:09:21.600Z,77.34
2022-08-26T19:11:50.006Z,77.44
2022-08-26T19:14:17.048Z,77.40
2022-08-26T19:16:46.198Z,78.16
2022-08-26T19:19:13.449Z,78.54
2022-08-26T19:21:40.765Z,78.58
2022-08-26T19:24:15.323Z,79.17
2022-08-26T19:26:46.715Z,78.51
2022-08-26T19:29:15.382Z,78.68
2022-08-26T19:31:43.938Z,79.19
2022-08-26T19:34:13.537Z,79.21
2022-08-26T19:36:43.068Z,78.91
2022-08-26T19:39:14.305Z,78.95
2022-08-26T19:41:41.461Z,78.41
2022-08-26T19:44:12.956Z,77.98
2022-08-26T19:46:39.908Z,77.68
2022-08-26T19:49:06.729Z,76.65
2022-08-26T19:51:35.207Z,76.48
2022-08-26T19:54:02.382Z,75.84
2022-08-26T19:56:31.900Z,76.08
2022-08-26T19:58:58.691Z,75.24
2022-08-26T20:01:26.204Z,74.91
2022-08-26T20:03:53.117Z,74.32
2022-08-26T20:06:20.846Z,74.39
2022-08-26T20:08:47.767Z,74.11
2022-08-26T20:11:18.710Z,74.71
2022-08-26T20:13:46.858Z,75.52
2022-08-26T20:16:14.230Z,75.76
2022-08-26T20:19:00.602Z,74.78
2022-08-26T20:21:29.487Z,73.62
2022-08-26T20:24:05.945Z,72.91
2022-08-26T20:26:35.237Z,72.37
2022-08-26T20:29:01.959Z,71.27
2022-08-26T20:31:29.676Z,70.61
2022-08-26T20:33:56.531Z,71.17
2022-08-26T20:36:26.813Z,70.92
2022-08-26T20:38:54.750Z,70.77
2022-08-26T20:41:22.588Z,69.72
2022-08-26T20:43:49.380Z,69.74
2022-08-26T20:46:17.968Z,69.36
2022-08-26T20:48:47.962Z,69.54
2022-08-26T20:51:16.627Z,69.62
2022-08-26T20:53:44.479Z,69.90
2022-08-26T20:56:13.406Z,70.10
2022-08-26T20:58:40.876Z,70.34
2022-08-26T21:01:08.956Z,69.70
2022-08-26T21:03:36.514Z,70.14
2022-08-26T21:06:03.914Z,70.17
2022-08-26T21:08:32.023Z,70.69
2022-08-26T21:11:00.914Z,70.38
2022-08-26T21:13:35.828Z,71.09
2022-08-26T21:16:11.463Z,71.31
2022-08-26T21:18:39.040Z,71.28
2022-08-26T21:21:09.820Z,71.90
2022-08-26T21:23:39.618Z,72.21
2022-08-26T21:26:15.050Z,71.92
2022-08-26T21:28:44.108Z,72.30
2022-08-26T21:31:14.128Z,72.65
2022-08-26T21:33:41.663Z,72.67
2022-08-26T21:36:10.082Z,72.85
2022-08-26T21:38:37.868Z,73.08
2022-08-26T21:41:19.305Z,73.52
2022-08-26T21:43:47.933Z,73.15
2022-08-26T21:46:17.426Z,73.20
2022-08-26T21:48:50.703Z,73.50
2022-08-26T21:51:20.366Z,72.91
2022-08-26T21:53:47.535Z,73.00
2022-08-26T21:56:16.157Z,73.50
2022-08-26T21:58:42.949Z,73.56
2022-08-26T22:01:16.119Z,73.82
2022-08-26T22:03:47.341Z,73.92
2022-08-26T22:06:23.535Z,73.53
2022-08-26T22:08:50.925Z,73.55
2022-08-26T22:11:18.886Z,73.45
2022-08-26T22:13:47.205Z,74.12
2022-08-26T22:16:14.421Z,74.14
2022-08-26T22:18:43.811Z,74.56
2022-08-26T22:21:16.643Z,74.69
2022-08-26T22:23:44.282Z,74.62
2022-08-26T22:26:13.118Z,74.39
2022-08-26T22:28:42.371Z,74.47
2022-08-26T22:31:14.370Z,75.01
2022-08-26T22:33:46.445Z,74.19
2022-08-26T22:36:20.514Z,73.86
2022-08-26T22:38:50.497Z,73.57
2022-08-26T22:41:18.312Z,73.58
2022-08-26T22:43:46.284Z,73.50
2022-08-26T22:46:21.808Z,73.23
2022-08-26T22:48:53.725Z,74.22
2022-08-26T22:51:22.153Z,74.30
2022-08-26T22:53:49.181Z,73.97
2022-08-26T22:56:18.481Z,73.39
2022-08-26T22:58:45.625Z,74.07
2022-08-26T23:01:16.937Z,74.00
2022-08-26T23:03:45.339Z,74.05
2022-08-26T23:06:12.255Z,73.69
2022-08-26T23:08:41.854Z,73.03
2022-08-26T23:11:14.351Z,73.33
2022-08-26T23:13:41.143Z,73.94
2022-08-26T23:16:11.084Z,73.88
2022-08-26T23:18:38.984Z,73.40
2022-08-26T23:21:06.025Z,73.31
2022-08-26T23:23:33.356Z,73.29
2022-08-26T23:26:03.232Z,73.45
2022-08-26T23:28:35.974Z,73.08
2022-08-26T23:31:02.808Z,73.19
2022-08-26T23:33:52.214Z,72.70
2022-08-26T23:36:22.960Z,72.98
2022-08-26T23:38:53.786Z,73.33
2022-08-26T23:41:22.470Z,73.65
2022-08-26T23:43:49.711Z,74.24
2022-08-26T23:46:16.667Z,74.12
2022-08-26T23:48:43.848Z,74.39
2022-08-26T23:51:33.961Z,73.84
2022-08-26T23:54:00.686Z,73.81
2022-08-26T23:56:29.146Z,73.34
2022-08-26T23:58:56.124Z,73.58
